sensor_id;sensor_type;location;lat;lon;timestamp;temperature;humidity
9668;DHT22;4872;48.316;10.650;2023-08-24T04:11:17;19.40;99.90
9668;DHT22;4872;48.316;10.650;2023-08-24T04:13:44;19.50;99.90
9668;DHT22;4872;48.316;10.650;2023-08-24T04:16:11;19.60;99.90
9668;DHT22;4872;48.316;10.650;2023-08-24T04:18:38;19.60;99.90
9668;DHT22;4872;48.316;10.650;2023-08-24T04:21:06;19.60;99.90
9668;DHT22;4872;48.316;10.650;2023-08-24T04:23:32;19.60;99.90
9668;DHT22;4872;48.316;10.650;2023-08-24T04:25:59;19.50;99.90
9668;DHT22;4872;48.316;10.650;2023-08-24T04:28:27;19.50;99.90
9668;DHT22;4872;48.316;10.650;2023-08-24T04:30:56;19.50;99.90
9668;DHT22;4872;48.316;10.650;2023-08-24T04:33:23;19.60;99.90
9668;DHT22;4872;48.316;10.650;2023-08-24T04:35:50;19.60;99.90
9668;DHT22;4872;48.316;10.650;2023-08-24T04:38:17;19.70;99.90
9668;DHT22;4872;48.316;10.650;2023-08-24T04:40:47;19.70;99.90
9668;DHT22;4872;48.316;10.650;2023-08-24T04:43:14;19.80;99.90
9668;DHT22;4872;48.316;10.650;2023-08-24T04:45:42;19.70;99.90
9668;DHT22;4872;48.316;10.650;2023-08-24T04:48:09;19.50;99.90
9668;DHT22;4872;48.316;10.650;2023-08-24T04:50:36;19.40;99.90
9668;DHT22;4872;48.316;10.650;2023-08-24T04:53:03;19.50;99.90
9668;DHT22;4872;48.316;10.650;2023-08-24T04:55:29;19.60;99.90
9668;DHT22;4872;48.316;10.650;2023-08-24T04:57:56;19.60;99.90
9668;DHT22;4872;48.316;10.650;2023-08-24T05:00:23;19.70;99.90
9668;DHT22;4872;48.316;10.650;2023-08-24T05:02:51;19.70;99.90
9668;DHT22;4872;48.316;10.650;2023-08-24T05:05:18;19.80;99.90
9668;DHT22;4872;48.316;10.650;2023-08-24T05:07:45;19.80;99.90
9668;DHT22;4872;48.316;10.650;2023-08-24T05:10:12;19.80;99.90
9668;DHT22;4872;48.316;10.650;2023-08-24T05:12:39;19.70;99.90
9668;DHT22;4872;48.316;10.650;2023-08-24T05:15:06;19.80;99.90
9668;DHT22;4872;48.316;10.650;2023-08-24T05:17:33;19.80;99.90
9668;DHT22;4872;48.316;10.650;2023-08-24T05:20:01;19.80;99.90
9668;DHT22;4872;48.316;10.650;2023-08-24T05:22:29;19.80;99.90
9668;DHT22;4872;48.316;10.650;2023-08-24T05:24:56;19.80;99.90
9668;DHT22;4872;48.316;10.650;2023-08-24T05:27:22;19.90;99.90
9668;DHT22;4872;48.316;10.650;2023-08-24T05:29:49;20.00;99.90
9668;DHT22;4872;48.316;10.650;2023-08-24T05:32:16;20.10;99.90
9668;DHT22;4872;48.316;10.650;2023-08-24T05:34:43;20.20;99.90
9668;DHT22;4872;48.316;10.650;2023-08-24T05:37:11;20.30;99.90
9668;DHT22;4872;48.316;10.650;2023-08-24T05:39:37;20.40;99.90
9668;DHT22;4872;48.316;10.650;2023-08-24T05:42:04;20.50;99.90
9668;DHT22;4872;48.316;10.650;2023-08-24T05:44:31;20.60;99.90
9668;DHT22;4872;48.316;10.650;2023-08-24T05:46:58;20.70;99.90
9668;DHT22;4872;48.316;10.650;2023-08-24T05:49:25;20.80;99.90
9668;DHT22;4872;48.316;10.650;2023-08-24T05:51:52;21.00;99.90
9668;DHT22;4872;48.316;10.650;2023-08-24T05:54:20;21.10;99.90
9668;DHT22;4872;48.316;10.650;2023-08-24T05:56:47;21.20;99.90
9668;DHT22;4872;48.316;10.650;2023-08-24T05:59:14;21.30;99.90
9668;DHT22;4872;48.316;10.650;2023-08-24T06:01:41;21.40;99.90
9668;DHT22;4872;48.316;10.650;2023-08-24T06:04:08;21.40;99.90
9668;DHT22;4872;48.316;10.650;2023-08-24T06:06:35;21.50;99.90
9668;DHT22;4872;48.316;10.650;2023-08-24T06:09:02;21.50;99.90
9668;DHT22;4872;48.316;10.650;2023-08-24T06:11:32;21.60;99.90
9668;DHT22;4872;48.316;10.650;2023-08-24T06:13:59;21.60;99.90
9668;DHT22;4872;48.316;10.650;2023-08-24T06:16:26;21.70;99.90
9668;DHT22;4872;48.316;10.650;2023-08-24T06:18:52;21.70;99.90
9668;DHT22;4872;48.316;10.650;2023-08-24T06:21:19;21.60;99.90
9668;DHT22;4872;48.316;10.650;2023-08-24T06:23:46;21.70;99.90
9668;DHT22;4872;48.316;10.650;2023-08-24T06:26:13;21.80;99.90
9668;DHT22;4872;48.316;10.650;2023-08-24T06:28:41;21.80;99.90
9668;DHT22;4872;48.316;10.650;2023-08-24T06:31:08;22.00;99.90
9668;DHT22;4872;48.316;10.650;2023-08-24T06:33:35;22.10;99.90
9668;DHT22;4872;48.316;10.650;2023-08-24T06:36:04;22.20;99.90
9668;DHT22;4872;48.316;10.650;2023-08-24T06:38:31;22.30;99.90
9668;DHT22;4872;48.316;10.650;2023-08-24T06:40:58;22.50;99.90
9668;DHT22;4872;48.316;10.650;2023-08-24T06:43:25;22.50;99.90
9668;DHT22;4872;48.316;10.650;2023-08-24T06:45:54;22.60;99.90
9668;DHT22;4872;48.316;10.650;2023-08-24T06:48:21;22.70;99.90
9668;DHT22;4872;48.316;10.650;2023-08-24T06:50:48;22.80;99.90
9668;DHT22;4872;48.316;10.650;2023-08-24T06:53:15;22.90;99.90
9668;DHT22;4872;48.316;10.650;2023-08-24T06:55:42;23.00;99.90
9668;DHT22;4872;48.316;10.650;2023-08-24T06:58:08;23.00;99.90
9668;DHT22;4872;48.316;10.650;2023-08-24T07:00:35;23.10;99.90
9668;DHT22;4872;48.316;10.650;2023-08-24T07:03:04;23.20;99.90
9668;DHT22;4872;48.316;10.650;2023-08-24T07:05:31;23.30;99.90
9668;DHT22;4872;48.316;10.650;2023-08-24T07:07:59;23.40;99.90
9668;DHT22;4872;48.316;10.650;2023-08-24T07:10:26;23.50;99.90
9668;DHT22;4872;48.316;10.650;2023-08-24T07:12:52;23.50;99.90
9668;DHT22;4872;48.316;10.650;2023-08-24T07:15:19;23.60;99.90
9668;DHT22;4872;48.316;10.650;2023-08-24T07:17:46;23.70;99.90
9668;DHT22;4872;48.316;10.650;2023-08-24T07:20:14;23.80;99.90
9668;DHT22;4872;48.316;10.650;2023-08-24T07:22:41;24.00;99.90
9668;DHT22;4872;48.316;10.650;2023-08-24T07:25:08;24.10;99.90
9668;DHT22;4872;48.316;10.650;2023-08-24T07:27:36;24.20;99.90
9668;DHT22;4872;48.316;10.650;2023-08-24T07:30:04;24.40;99.90
9668;DHT22;4872;48.316;10.650;2023-08-24T07:32:31;24.50;99.70
9668;DHT22;4872;48.316;10.650;2023-08-24T07:34:58;24.70;99.40
9668;DHT22;4872;48.316;10.650;2023-08-24T07:37:27;24.80;99.30
9668;DHT22;4872;48.316;10.650;2023-08-24T07:39:54;24.90;99.30
9668;DHT22;4872;48.316;10.650;2023-08-24T07:42:21;25.00;99.40
9668;DHT22;4872;48.316;10.650;2023-08-24T07:44:48;25.20;99.20
9668;DHT22;4872;48.316;10.650;2023-08-24T07:47:15;25.30;99.50
9668;DHT22;4872;48.316;10.650;2023-08-24T07:49:42;25.40;99.20
9668;DHT22;4872;48.316;10.650;2023-08-24T07:52:10;25.60;99.20
9668;DHT22;4872;48.316;10.650;2023-08-24T07:54:39;25.70;99.20
9668;DHT22;4872;48.316;10.650;2023-08-24T07:57:06;25.90;99.10
9668;DHT22;4872;48.316;10.650;2023-08-24T07:59:33;26.00;99.00
9668;DHT22;4872;48.316;10.650;2023-08-24T08:02:00;26.20;99.20
9668;DHT22;4872;48.316;10.650;2023-08-24T08:04:27;26.30;99.00
9668;DHT22;4872;48.316;10.650;2023-08-24T08:06:53;26.40;98.60
9668;DHT22;4872;48.316;10.650;2023-08-24T08:09:21;26.50;98.50
9668;DHT22;4872;48.316;10.650;2023-08-24T08:11:49;26.50;98.50
9668;DHT22;4872;48.316;10.650;2023-08-24T08:14:17;26.60;98.70
9668;DHT22;4872;48.316;10.650;2023-08-24T08:16:44;26.60;98.30
9668;DHT22;4872;48.316;10.650;2023-08-24T08:19:10;26.50;98.10
9668;DHT22;4872;48.316;10.650;2023-08-24T08:21:37;26.50;98.10
9668;DHT22;4872;48.316;10.650;2023-08-24T08:24:04;26.40;98.10
9668;DHT22;4872;48.316;10.650;2023-08-24T08:26:31;26.40;98.10
9668;DHT22;4872;48.316;10.650;2023-08-24T08:28:59;26.40;98.30
9668;DHT22;4872;48.316;10.650;2023-08-24T08:31:26;26.40;98.40
9668;DHT22;4872;48.316;10.650;2023-08-24T08:33:52;26.50;98.60
9668;DHT22;4872;48.316;10.650;2023-08-24T08:36:19;26.50;98.40
9668;DHT22;4872;48.316;10.650;2023-08-24T08:38:46;26.50;98.30
9668;DHT22;4872;48.316;10.650;2023-08-24T08:41:15;26.50;98.20
9668;DHT22;4872;48.316;10.650;2023-08-24T08:43:43;26.60;98.40
9668;DHT22;4872;48.316;10.650;2023-08-24T08:46:12;26.60;98.60
9668;DHT22;4872;48.316;10.650;2023-08-24T08:48:41;26.70;98.60
9668;DHT22;4872;48.316;10.650;2023-08-24T08:51:09;26.80;98.40
9668;DHT22;4872;48.316;10.650;2023-08-24T08:53:36;26.80;98.20
9668;DHT22;4872;48.316;10.650;2023-08-24T08:56:04;26.90;98.30
9668;DHT22;4872;48.316;10.650;2023-08-24T08:58:31;27.00;98.20
9668;DHT22;4872;48.316;10.650;2023-08-24T09:00:58;27.10;98.30
9668;DHT22;4872;48.316;10.650;2023-08-24T09:03:31;27.20;98.60
9668;DHT22;4872;48.316;10.650;2023-08-24T09:05:58;27.30;98.40
9668;DHT22;4872;48.316;10.650;2023-08-24T09:08:25;27.40;97.90
9668;DHT22;4872;48.316;10.650;2023-08-24T09:10:53;27.50;98.00
9668;DHT22;4872;48.316;10.650;2023-08-24T09:13:20;27.60;98.00
9668;DHT22;4872;48.316;10.650;2023-08-24T09:15:51;27.70;98.00
9668;DHT22;4872;48.316;10.650;2023-08-24T09:18:19;27.70;98.00
9668;DHT22;4872;48.316;10.650;2023-08-24T09:20:48;27.80;97.80
9668;DHT22;4872;48.316;10.650;2023-08-24T09:23:18;27.90;98.00
9668;DHT22;4872;48.316;10.650;2023-08-24T09:25:46;27.90;97.80
9668;DHT22;4872;48.316;10.650;2023-08-24T09:28:14;28.00;97.80
9668;DHT22;4872;48.316;10.650;2023-08-24T09:30:52;28.00;97.80
9668;DHT22;4872;48.316;10.650;2023-08-24T09:33:20;28.10;97.80
9668;DHT22;4872;48.316;10.650;2023-08-24T09:35:54;28.20;97.90
9668;DHT22;4872;48.316;10.650;2023-08-24T09:38:26;28.20;97.40
9668;DHT22;4872;48.316;10.650;2023-08-24T09:40:54;28.30;97.80
9668;DHT22;4872;48.316;10.650;2023-08-24T09:43:22;28.40;97.60
9668;DHT22;4872;48.316;10.650;2023-08-24T09:45:49;28.40;97.70
9668;DHT22;4872;48.316;10.650;2023-08-24T09:48:17;28.50;97.30
9668;DHT22;4872;48.316;10.650;2023-08-24T09:50:44;28.50;97.80
9668;DHT22;4872;48.316;10.650;2023-08-24T09:53:16;28.60;97.30
9668;DHT22;4872;48.316;10.650;2023-08-24T09:55:46;28.70;97.30
9668;DHT22;4872;48.316;10.650;2023-08-24T09:58:15;28.80;97.00
9668;DHT22;4872;48.316;10.650;2023-08-24T10:00:43;28.90;96.60
9668;DHT22;4872;48.316;10.650;2023-08-24T10:03:13;28.90;96.70
9668;DHT22;4872;48.316;10.650;2023-08-24T10:05:44;28.90;96.90
9668;DHT22;4872;48.316;10.650;2023-08-24T10:08:14;29.00;96.70
9668;DHT22;4872;48.316;10.650;2023-08-24T10:10:42;29.00;96.40
9668;DHT22;4872;48.316;10.650;2023-08-24T10:13:17;29.00;96.50
9668;DHT22;4872;48.316;10.650;2023-08-24T10:15:45;29.10;96.10
9668;DHT22;4872;48.316;10.650;2023-08-24T10:18:13;29.10;96.10
9668;DHT22;4872;48.316;10.650;2023-08-24T10:20:41;29.10;96.00
9668;DHT22;4872;48.316;10.650;2023-08-24T10:23:10;29.10;95.90
9668;DHT22;4872;48.316;10.650;2023-08-24T10:25:40;29.20;95.70
9668;DHT22;4872;48.316;10.650;2023-08-24T10:28:07;29.30;95.40
9668;DHT22;4872;48.316;10.650;2023-08-24T10:30:35;29.40;95.30
9668;DHT22;4872;48.316;10.650;2023-08-24T10:33:04;29.40;94.30
9668;DHT22;4872;48.316;10.650;2023-08-24T10:35:31;29.40;94.60
9668;DHT22;4872;48.316;10.650;2023-08-24T10:37:59;29.50;94.90
9668;DHT22;4872;48.316;10.650;2023-08-24T10:40:32;29.50;95.40
9668;DHT22;4872;48.316;10.650;2023-08-24T10:43:04;29.60;95.20
9668;DHT22;4872;48.316;10.650;2023-08-24T10:45:56;29.70;94.50
9668;DHT22;4872;48.316;10.650;2023-08-24T10:48:24;29.70;94.30
9668;DHT22;4872;48.316;10.650;2023-08-24T10:51:16;29.80;94.20
9668;DHT22;4872;48.316;10.650;2023-08-24T10:53:46;29.80;94.10
9668;DHT22;4872;48.316;10.650;2023-08-24T10:56:14;29.90;94.20
9668;DHT22;4872;48.316;10.650;2023-08-24T10:58:43;29.90;93.60
9668;DHT22;4872;48.316;10.650;2023-08-24T11:01:15;30.00;93.60
9668;DHT22;4872;48.316;10.650;2023-08-24T11:03:48;30.00;93.00
9668;DHT22;4872;48.316;10.650;2023-08-24T11:06:20;30.10;93.10
9668;DHT22;4872;48.316;10.650;2023-08-24T11:08:48;30.20;93.20
9668;DHT22;4872;48.316;10.650;2023-08-24T11:11:21;30.20;93.40
9668;DHT22;4872;48.316;10.650;2023-08-24T11:14:16;30.30;93.30
9668;DHT22;4872;48.316;10.650;2023-08-24T11:16:45;30.30;93.40
9668;DHT22;4872;48.316;10.650;2023-08-24T11:19:13;30.40;92.70
9668;DHT22;4872;48.316;10.650;2023-08-24T11:21:41;30.50;92.90
9668;DHT22;4872;48.316;10.650;2023-08-24T11:24:09;30.50;93.00
9668;DHT22;4872;48.316;10.650;2023-08-24T11:26:41;30.60;93.20
9668;DHT22;4872;48.316;10.650;2023-08-24T11:29:08;30.70;92.60
9668;DHT22;4872;48.316;10.650;2023-08-24T11:31:37;30.70;92.40
9668;DHT22;4872;48.316;10.650;2023-08-24T11:34:05;30.80;92.60
9668;DHT22;4872;48.316;10.650;2023-08-24T11:36:41;30.80;92.10
9668;DHT22;4872;48.316;10.650;2023-08-24T11:39:14;30.90;92.10
9668;DHT22;4872;48.316;10.650;2023-08-24T11:41:41;31.00;91.80
9668;DHT22;4872;48.316;10.650;2023-08-24T11:44:08;31.00;91.50
9668;DHT22;4872;48.316;10.650;2023-08-24T11:46:38;31.10;91.00
9668;DHT22;4872;48.316;10.650;2023-08-24T11:49:05;31.20;90.80
9668;DHT22;4872;48.316;10.650;2023-08-24T11:51:32;31.20;90.50
9668;DHT22;4872;48.316;10.650;2023-08-24T11:54:01;31.30;90.70
9668;DHT22;4872;48.316;10.650;2023-08-24T11:56:27;31.40;91.00
9668;DHT22;4872;48.316;10.650;2023-08-24T11:58:54;31.50;91.10
9668;DHT22;4872;48.316;10.650;2023-08-24T12:01:21;31.60;91.20
9668;DHT22;4872;48.316;10.650;2023-08-24T12:03:49;31.70;90.80
9668;DHT22;4872;48.316;10.650;2023-08-24T12:06:17;31.70;90.90
9668;DHT22;4872;48.316;10.650;2023-08-24T12:08:46;31.70;90.20
9668;DHT22;4872;48.316;10.650;2023-08-24T12:11:14;31.90;89.60
9668;DHT22;4872;48.316;10.650;2023-08-24T12:13:45;31.90;88.30
9668;DHT22;4872;48.316;10.650;2023-08-24T12:16:12;32.10;89.30
9668;DHT22;4872;48.316;10.650;2023-08-24T12:18:54;32.20;90.10
9668;DHT22;4872;48.316;10.650;2023-08-24T12:21:21;32.30;90.00
9668;DHT22;4872;48.316;10.650;2023-08-24T12:23:55;32.50;89.70
9668;DHT22;4872;48.316;10.650;2023-08-24T12:26:23;32.60;88.30
9668;DHT22;4872;48.316;10.650;2023-08-24T12:28:50;32.80;86.20
9668;DHT22;4872;48.316;10.650;2023-08-24T12:31:18;32.90;87.30
9668;DHT22;4872;48.316;10.650;2023-08-24T12:33:45;33.10;88.90
9668;DHT22;4872;48.316;10.650;2023-08-24T12:36:17;33.20;85.50
9668;DHT22;4872;48.316;10.650;2023-08-24T12:38:44;33.30;85.60
9668;DHT22;4872;48.316;10.650;2023-08-24T12:41:11;33.40;85.00
9668;DHT22;4872;48.316;10.650;2023-08-24T12:43:38;33.60;85.20
9668;DHT22;4872;48.316;10.650;2023-08-24T12:46:05;33.70;85.00
9668;DHT22;4872;48.316;10.650;2023-08-24T12:48:31;33.90;85.50
9668;DHT22;4872;48.316;10.650;2023-08-24T12:50:58;34.10;85.10
9668;DHT22;4872;48.316;10.650;2023-08-24T12:53:26;34.30;85.30
9668;DHT22;4872;48.316;10.650;2023-08-24T12:55:53;34.40;83.00
9668;DHT22;4872;48.316;10.650;2023-08-24T12:58:20;34.60;81.00
9668;DHT22;4872;48.316;10.650;2023-08-24T13:00:47;34.80;83.30
9668;DHT22;4872;48.316;10.650;2023-08-24T13:03:14;34.90;81.20
9668;DHT22;4872;48.316;10.650;2023-08-24T13:05:41;35.00;80.30
9668;DHT22;4872;48.316;10.650;2023-08-24T13:08:07;35.20;80.60
9668;DHT22;4872;48.316;10.650;2023-08-24T13:10:36;35.40;79.70
9668;DHT22;4872;48.316;10.650;2023-08-24T13:13:03;35.40;78.40
9668;DHT22;4872;48.316;10.650;2023-08-24T13:15:30;35.50;77.90
9668;DHT22;4872;48.316;10.650;2023-08-24T13:17:57;35.60;79.50
9668;DHT22;4872;48.316;10.650;2023-08-24T13:20:23;35.70;78.50
9668;DHT22;4872;48.316;10.650;2023-08-24T13:22:51;35.80;77.10
9668;DHT22;4872;48.316;10.650;2023-08-24T13:25:18;35.80;77.00
9668;DHT22;4872;48.316;10.650;2023-08-24T13:27:46;36.00;77.10
9668;DHT22;4872;48.316;10.650;2023-08-24T13:30:13;36.10;77.20
9668;DHT22;4872;48.316;10.650;2023-08-24T13:32:40;36.00;78.10
9668;DHT22;4872;48.316;10.650;2023-08-24T13:35:08;36.20;76.50
9668;DHT22;4872;48.316;10.650;2023-08-24T13:37:35;36.30;76.60
9668;DHT22;4872;48.316;10.650;2023-08-24T13:40:02;36.30;75.30
9668;DHT22;4872;48.316;10.650;2023-08-24T13:42:29;36.20;75.60
9668;DHT22;4872;48.316;10.650;2023-08-24T13:44:57;36.50;75.70
9668;DHT22;4872;48.316;10.650;2023-08-24T13:47:24;36.70;75.00
9668;DHT22;4872;48.316;10.650;2023-08-24T13:49:51;37.00;74.30
9668;DHT22;4872;48.316;10.650;2023-08-24T13:52:18;37.20;72.20
9668;DHT22;4872;48.316;10.650;2023-08-24T13:54:45;37.40;70.60
9668;DHT22;4872;48.316;10.650;2023-08-24T13:57:12;37.60;71.60
9668;DHT22;4872;48.316;10.650;2023-08-24T13:59:38;37.90;70.70
9668;DHT22;4872;48.316;10.650;2023-08-24T14:02:07;38.10;71.10
9668;DHT22;4872;48.316;10.650;2023-08-24T14:04:34;38.30;70.50
9668;DHT22;4872;48.316;10.650;2023-08-24T14:07:00;38.60;70.70
9668;DHT22;4872;48.316;10.650;2023-08-24T14:09:27;38.70;68.70
9668;DHT22;4872;48.316;10.650;2023-08-24T14:11:54;38.90;67.70
9668;DHT22;4872;48.316;10.650;2023-08-24T14:14:21;39.00;68.40
9668;DHT22;4872;48.316;10.650;2023-08-24T14:16:53;39.00;67.80
9668;DHT22;4872;48.316;10.650;2023-08-24T14:19:22;38.90;66.90
9668;DHT22;4872;48.316;10.650;2023-08-24T14:21:49;38.80;68.10
9668;DHT22;4872;48.316;10.650;2023-08-24T14:24:15;38.80;69.50
9668;DHT22;4872;48.316;10.650;2023-08-24T14:26:42;38.90;67.40
9668;DHT22;4872;48.316;10.650;2023-08-24T14:29:11;38.80;67.40
9668;DHT22;4872;48.316;10.650;2023-08-24T14:31:38;38.60;66.70
9668;DHT22;4872;48.316;10.650;2023-08-24T14:34:05;38.40;67.10
9668;DHT22;4872;48.316;10.650;2023-08-24T14:36:33;38.20;66.50
9668;DHT22;4872;48.316;10.650;2023-08-24T14:39:00;38.10;67.20
9668;DHT22;4872;48.316;10.650;2023-08-24T14:41:27;38.10;68.50
9668;DHT22;4872;48.316;10.650;2023-08-24T14:43:54;38.20;66.60
9668;DHT22;4872;48.316;10.650;2023-08-24T14:46:21;38.30;67.20
9668;DHT22;4872;48.316;10.650;2023-08-24T14:48:47;38.60;66.50
9668;DHT22;4872;48.316;10.650;2023-08-24T14:51:14;38.80;63.90
9668;DHT22;4872;48.316;10.650;2023-08-24T14:53:42;39.00;65.10
9668;DHT22;4872;48.316;10.650;2023-08-24T14:56:09;39.30;65.60
9668;DHT22;4872;48.316;10.650;2023-08-24T14:58:36;39.50;63.00
9668;DHT22;4872;48.316;10.650;2023-08-24T15:01:03;39.50;63.80
9668;DHT22;4872;48.316;10.650;2023-08-24T15:03:30;39.50;64.60
9668;DHT22;4872;48.316;10.650;2023-08-24T15:05:59;39.30;63.70
9668;DHT22;4872;48.316;10.650;2023-08-24T15:08:26;39.10;64.20
9668;DHT22;4872;48.316;10.650;2023-08-24T15:10:56;39.10;65.50
9668;DHT22;4872;48.316;10.650;2023-08-24T15:13:23;39.10;63.60
9668;DHT22;4872;48.316;10.650;2023-08-24T15:15:54;39.10;65.10
9668;DHT22;4872;48.316;10.650;2023-08-24T15:18:21;39.50;63.70
9668;DHT22;4872;48.316;10.650;2023-08-24T15:20:48;39.70;63.40
9668;DHT22;4872;48.316;10.650;2023-08-24T15:23:23;40.00;61.40
9668;DHT22;4872;48.316;10.650;2023-08-24T15:25:50;40.40;61.30
9668;DHT22;4872;48.316;10.650;2023-08-24T15:28:18;40.70;62.20
9668;DHT22;4872;48.316;10.650;2023-08-24T15:30:45;41.00;61.60
9668;DHT22;4872;48.316;10.650;2023-08-24T15:33:11;41.10;58.90
9668;DHT22;4872;48.316;10.650;2023-08-24T15:35:39;40.90;57.90
9668;DHT22;4872;48.316;10.650;2023-08-24T15:38:07;41.00;58.90
9668;DHT22;4872;48.316;10.650;2023-08-24T15:40:34;41.10;56.50
9668;DHT22;4872;48.316;10.650;2023-08-24T15:43:01;41.10;55.20
9668;DHT22;4872;48.316;10.650;2023-08-24T15:45:30;41.00;54.70
9668;DHT22;4872;48.316;10.650;2023-08-24T15:47:57;40.90;53.20
9668;DHT22;4872;48.316;10.650;2023-08-24T15:50:25;40.70;52.20
9668;DHT22;4872;48.316;10.650;2023-08-24T15:52:52;40.60;53.00
9668;DHT22;4872;48.316;10.650;2023-08-24T15:55:23;40.60;53.70
9668;DHT22;4872;48.316;10.650;2023-08-24T15:57:51;40.50;52.20
9668;DHT22;4872;48.316;10.650;2023-08-24T16:00:18;40.40;51.90
9668;DHT22;4872;48.316;10.650;2023-08-24T16:02:46;39.30;51.80
9668;DHT22;4872;48.316;10.650;2023-08-24T16:05:13;38.20;54.70
9668;DHT22;4872;48.316;10.650;2023-08-24T16:07:40;37.70;59.00
9668;DHT22;4872;48.316;10.650;2023-08-24T16:10:08;36.90;62.40
9668;DHT22;4872;48.316;10.650;2023-08-24T16:12:35;36.30;63.60
9668;DHT22;4872;48.316;10.650;2023-08-24T16:15:02;36.00;63.70
9668;DHT22;4872;48.316;10.650;2023-08-24T16:17:29;35.80;64.60
9668;DHT22;4872;48.316;10.650;2023-08-24T16:19:58;35.70;66.50
9668;DHT22;4872;48.316;10.650;2023-08-24T16:22:25;35.50;66.80
9668;DHT22;4872;48.316;10.650;2023-08-24T16:24:52;35.20;67.20
9668;DHT22;4872;48.316;10.650;2023-08-24T16:27:19;35.00;67.90
9668;DHT22;4872;48.316;10.650;2023-08-24T16:29:45;34.70;67.30
9668;DHT22;4872;48.316;10.650;2023-08-24T16:32:12;34.50;68.40
9668;DHT22;4872;48.316;10.650;2023-08-24T16:34:39;34.20;69.60
9668;DHT22;4872;48.316;10.650;2023-08-24T16:37:07;34.10;70.40
9668;DHT22;4872;48.316;10.650;2023-08-24T16:39:34;33.80;69.60
9668;DHT22;4872;48.316;10.650;2023-08-24T16:42:01;33.60;69.90
9668;DHT22;4872;48.316;10.650;2023-08-24T16:44:29;33.40;71.70
9668;DHT22;4872;48.316;10.650;2023-08-24T16:46:56;33.20;71.40
9668;DHT22;4872;48.316;10.650;2023-08-24T16:49:22;33.00;71.40
9668;DHT22;4872;48.316;10.650;2023-08-24T16:51:49;32.80;71.70
9668;DHT22;4872;48.316;10.650;2023-08-24T16:54:17;32.70;72.50
9668;DHT22;4872;48.316;10.650;2023-08-24T16:56:44;32.60;72.80
9668;DHT22;4872;48.316;10.650;2023-08-24T16:59:11;32.40;73.00
9668;DHT22;4872;48.316;10.650;2023-08-24T17:01:37;32.30;74.30
9668;DHT22;4872;48.316;10.650;2023-08-24T17:04:04;32.10;74.40
9668;DHT22;4872;48.316;10.650;2023-08-24T17:06:31;32.00;74.60
9668;DHT22;4872;48.316;10.650;2023-08-24T17:08:58;31.90;74.60
9668;DHT22;4872;48.316;10.650;2023-08-24T17:11:26;31.70;75.50
9668;DHT22;4872;48.316;10.650;2023-08-24T17:13:53;31.60;76.00
9668;DHT22;4872;48.316;10.650;2023-08-24T17:16:19;31.50;76.40
9668;DHT22;4872;48.316;10.650;2023-08-24T17:18:46;31.40;76.50
9668;DHT22;4872;48.316;10.650;2023-08-24T17:21:14;31.20;76.40
9668;DHT22;4872;48.316;10.650;2023-08-24T17:23:40;31.10;76.70
9668;DHT22;4872;48.316;10.650;2023-08-24T17:26:07;31.00;76.60
9668;DHT22;4872;48.316;10.650;2023-08-24T17:28:36;30.90;77.00
9668;DHT22;4872;48.316;10.650;2023-08-24T17:31:03;30.80;77.50
9668;DHT22;4872;48.316;10.650;2023-08-24T17:33:32;30.70;78.40
9668;DHT22;4872;48.316;10.650;2023-08-24T17:35:59;30.60;79.10
9668;DHT22;4872;48.316;10.650;2023-08-24T17:38:27;30.50;79.10
9668;DHT22;4872;48.316;10.650;2023-08-24T17:40:59;30.30;78.90
9668;DHT22;4872;48.316;10.650;2023-08-24T17:43:27;30.10;79.60
9668;DHT22;4872;48.316;10.650;2023-08-24T17:45:55;30.10;81.00
9668;DHT22;4872;48.316;10.650;2023-08-24T17:48:22;30.10;81.10
9668;DHT22;4872;48.316;10.650;2023-08-24T17:50:53;30.00;81.40
9668;DHT22;4872;48.316;10.650;2023-08-24T17:53:20;29.90;81.90
9668;DHT22;4872;48.316;10.650;2023-08-24T17:55:53;29.80;82.30
9668;DHT22;4872;48.316;10.650;2023-08-24T17:58:20;29.80;83.00
9668;DHT22;4872;48.316;10.650;2023-08-24T18:00:47;29.70;83.40
9668;DHT22;4872;48.316;10.650;2023-08-24T18:03:15;29.70;83.70
9668;DHT22;4872;48.316;10.650;2023-08-24T18:05:43;29.60;84.10
9668;DHT22;4872;48.316;10.650;2023-08-24T18:08:10;29.60;84.30
9668;DHT22;4872;48.316;10.650;2023-08-24T18:10:37;29.50;84.20
9668;DHT22;4872;48.316;10.650;2023-08-24T18:13:04;29.40;84.30
9668;DHT22;4872;48.316;10.650;2023-08-24T18:15:33;29.40;84.80
9668;DHT22;4872;48.316;10.650;2023-08-24T18:18:00;29.30;84.50
9668;DHT22;4872;48.316;10.650;2023-08-24T18:20:28;29.20;83.80
9668;DHT22;4872;48.316;10.650;2023-08-24T18:22:55;29.10;83.80
9668;DHT22;4872;48.316;10.650;2023-08-24T18:25:23;29.10;83.80
9668;DHT22;4872;48.316;10.650;2023-08-24T18:27:50;29.00;83.90
9668;DHT22;4872;48.316;10.650;2023-08-24T18:30:17;28.90;83.40
9668;DHT22;4872;48.316;10.650;2023-08-24T18:32:44;28.80;83.20
9668;DHT22;4872;48.316;10.650;2023-08-24T18:35:10;28.80;83.10
9668;DHT22;4872;48.316;10.650;2023-08-24T18:37:39;28.70;82.90
9668;DHT22;4872;48.316;10.650;2023-08-24T18:40:07;28.60;83.00
9668;DHT22;4872;48.316;10.650;2023-08-24T18:42:35;28.50;82.60
9668;DHT22;4872;48.316;10.650;2023-08-24T18:45:02;28.40;82.80
9668;DHT22;4872;48.316;10.650;2023-08-24T18:47:29;28.30;82.90
9668;DHT22;4872;48.316;10.650;2023-08-24T18:49:56;28.30;83.00
9668;DHT22;4872;48.316;10.650;2023-08-24T18:52:22;28.20;83.10
9668;DHT22;4872;48.316;10.650;2023-08-24T18:54:51;28.10;82.60
9668;DHT22;4872;48.316;10.650;2023-08-24T18:57:17;28.10;82.30
9668;DHT22;4872;48.316;10.650;2023-08-24T18:59:44;28.10;81.80
9668;DHT22;4872;48.316;10.650;2023-08-24T19:02:11;28.00;81.20
9668;DHT22;4872;48.316;10.650;2023-08-24T19:04:40;28.00;81.40
9668;DHT22;4872;48.316;10.650;2023-08-24T19:07:07;28.00;81.20
9668;DHT22;4872;48.316;10.650;2023-08-24T19:09:34;28.00;81.30
9668;DHT22;4872;48.316;10.650;2023-08-24T19:12:04;28.00;81.40
9668;DHT22;4872;48.316;10.650;2023-08-24T19:14:31;28.00;81.30
9668;DHT22;4872;48.316;10.650;2023-08-24T19:17:00;28.00;82.20
9668;DHT22;4872;48.316;10.650;2023-08-24T19:19:27;28.00;82.20
9668;DHT22;4872;48.316;10.650;2023-08-24T19:21:54;27.90;82.50
9668;DHT22;4872;48.316;10.650;2023-08-24T19:24:20;27.90;82.00
9668;DHT22;4872;48.316;10.650;2023-08-24T19:26:48;27.90;83.00
9668;DHT22;4872;48.316;10.650;2023-08-24T19:29:16;27.70;82.70
9668;DHT22;4872;48.316;10.650;2023-08-24T19:31:43;27.70;83.30
9668;DHT22;4872;48.316;10.650;2023-08-24T19:34:10;27.60;82.90
9668;DHT22;4872;48.316;10.650;2023-08-24T19:36:37;27.60;83.50
9668;DHT22;4872;48.316;10.650;2023-08-24T19:39:04;27.50;84.20
9668;DHT22;4872;48.316;10.650;2023-08-24T19:41:30;27.50;84.10
9668;DHT22;4872;48.316;10.650;2023-08-24T19:43:57;27.40;84.10
9668;DHT22;4872;48.316;10.650;2023-08-24T19:46:25;27.40;83.30
9668;DHT22;4872;48.316;10.650;2023-08-24T19:48:54;27.40;82.80
9668;DHT22;4872;48.316;10.650;2023-08-24T19:51:21;27.40;82.70
9668;DHT22;4872;48.316;10.650;2023-08-24T19:53:48;27.40;82.70
9668;DHT22;4872;48.316;10.650;2023-08-24T19:56:14;26.80;84.30
9668;DHT22;4872;48.316;10.650;2023-08-24T19:58:41;25.90;82.90